Foz Da Nazare — CUPD — position and weather

sailwx.info

Track history (hours):
 
Tides and Currents Weather Stations Pressure Air Temp Water Temp Dewpoint Dewpoint Depression Visibility Wind Speed Wind Dir Waves Ship Positions

Foz Da Nazare

Last reported at 2018-Jul-20 13:44 UTC. Time now 2018-Jul-23 00:23 UTC.
Position N 41°11' W 008°42'.

Length 34 m.

MMSI: 263470000.

Date/timePositionNaut miles runAvg speedWind from/ knotsBaromVisibWave heightAir tempDewpointWater temp
2018-Jul-20 13:44N 41°11' W 008°42'0 0.0
2018-Jul-20 13:30N 41°11' W 008°42'2 3.7
2018-Jul-20 13:00N 41°11' W 008°44'2 0.1
2018-Jul-19 21:30N 41°12' W 008°47'4 7.9
2018-Jul-19 21:00N 41°11' W 008°42'0 0.0
2018-Jul-19 20:30N 41°11' W 008°42'0 0.0
2018-Jul-19 20:01N 41°11' W 008°42'0 0.0
2018-Jul-19 19:29N 41°11' W 008°42'0 0.0
2018-Jul-19 19:00N 41°11' W 008°42'0 0.0
2018-Jul-19 18:30N 41°11' W 008°42'0 0.0
2018-Jul-19 18:00N 41°11' W 008°42'0 0.0
2018-Jul-19 17:31N 41°11' W 008°42'0 0.0
2018-Jul-19 17:00N 41°11' W 008°42'0 0.0
2018-Jul-19 16:30N 41°11' W 008°42'4 7.2
2018-Jul-19 16:00N 41°11' W 008°47'1 0.1
2018-Jul-19 02:42N 41°11' W 008°48'210.5
2018-Jul-19 02:31N 41°10' W 008°45'3 5.1
2018-Jul-19 02:00N 41°11' W 008°42'0 0.0
2018-Jul-19 01:30N 41°11' W 008°42'0 0.0
2018-Jul-19 01:01N 41°11' W 008°42'0 0.0
2018-Jul-19 00:30N 41°11' W 008°42'0 0.0
2018-Jul-19 00:01N 41°11' W 008°42'0 0.0
2018-Jul-18 23:31N 41°11' W 008°42'0 0.0
2018-Jul-18 23:01N 41°11' W 008°42'0 0.0
2018-Jul-18 22:31N 41°11' W 008°42'0 0.0
2018-Jul-18 22:00N 41°11' W 008°42'0 0.0
2018-Jul-18 21:30N 41°11' W 008°42'0 0.0
2018-Jul-18 21:00N 41°11' W 008°42'0 0.0
2018-Jul-18 20:31N 41°11' W 008°42'0 0.0
2018-Jul-18 20:00N 41°11' W 008°42'0 0.0
2018-Jul-18 19:31N 41°11' W 008°42'0 0.0
2018-Jul-18 19:00N 41°11' W 008°42'0 0.0
2018-Jul-18 18:31N 41°11' W 008°42'0 0.0
2018-Jul-18 18:01N 41°11' W 008°42'0 0.0
2018-Jul-18 17:31N 41°11' W 008°42'0 0.0
2018-Jul-18 17:00N 41°11' W 008°42'3 6.3
2018-Jul-18 16:30N 41°09' W 008°46'5 0.3
2018-Jul-18 01:33N 41°14' W 008°47'1 9.8
2018-Jul-18 01:29N 41°13' W 008°47'4 9.2
2018-Jul-18 01:00N 41°10' W 008°43'1 1.5
2018-Jul-18 00:31N 41°11' W 008°42'0 0.0
2018-Jul-18 00:00N 41°11' W 008°42'0 0.0
2018-Jul-17 23:30N 41°11' W 008°42'0 0.0
2018-Jul-17 23:00N 41°11' W 008°42'0 0.0
2018-Jul-17 22:30N 41°11' W 008°42'0 0.0
2018-Jul-17 22:00N 41°11' W 008°42'0 0.0
2018-Jul-17 21:30N 41°11' W 008°42'0 0.0
2018-Jul-17 21:00N 41°11' W 008°42'0 0.0
2018-Jul-17 20:30N 41°11' W 008°42'0 0.0
2018-Jul-17 20:00N 41°11' W 008°42'0 0.0
2018-Jul-17 19:31N 41°11' W 008°42'0 0.0
2018-Jul-17 19:00N 41°11' W 008°42'0 0.0
2018-Jul-17 18:30N 41°11' W 008°42'0 0.0
2018-Jul-17 18:00N 41°11' W 008°42'0 0.0
2018-Jul-17 17:30N 41°11' W 008°42'0 0.0
2018-Jul-17 17:00N 41°11' W 008°42'3 6.0
2018-Jul-17 16:30N 41°10' W 008°46'3 0.2
2018-Jul-17 02:29N 41°10' W 008°49'510.3
2018-Jul-17 02:01N 41°10' W 008°43'1 2.2
2018-Jul-17 01:30N 41°11' W 008°42'0 0.0
2018-Jul-17 01:00N 41°11' W 008°42'0 0.0
2018-Jul-17 00:30N 41°11' W 008°42'0 0.0
2018-Jul-16 23:30N 41°11' W 008°42'0 0.0
2018-Jul-16 23:01N 41°11' W 008°42'0 0.0
2018-Jul-16 22:30N 41°11' W 008°42'0 0.0
2018-Jul-16 22:00N 41°11' W 008°42'0 0.0
2018-Jul-16 21:30N 41°11' W 008°42'0 0.0
2018-Jul-16 21:00N 41°11' W 008°42'0 0.0
2018-Jul-16 20:30N 41°11' W 008°42'0 0.0
2018-Jul-16 20:00N 41°11' W 008°42'0 0.0
2018-Jul-16 19:30N 41°11' W 008°42'0 0.0
2018-Jul-16 19:00N 41°11' W 008°42'0 0.0
2018-Jul-16 18:30N 41°11' W 008°42'0 0.0
2018-Jul-16 18:00N 41°11' W 008°42'0 0.0
2018-Jul-16 17:30N 41°11' W 008°42'0 0.0
2018-Jul-16 17:00N 41°11' W 008°42'0 0.0
2018-Jul-16 16:30N 41°11' W 008°42'0 0.0
2018-Jul-16 16:01N 41°11' W 008°42'0 0.0
2018-Jul-16 15:31N 41°11' W 008°42'0 0.0
2018-Jul-16 15:01N 41°11' W 008°42'0 0.0
2018-Jul-16 14:30N 41°11' W 008°42'0 0.0
2018-Jul-16 14:00N 41°11' W 008°42'0 0.0
2018-Jul-16 13:31N 41°11' W 008°42'0 0.0
2018-Jul-16 13:00N 41°11' W 008°42'0 0.0
2018-Jul-16 12:30N 41°11' W 008°42'0 0.0
2018-Jul-16 12:00N 41°11' W 008°42'0 0.0
2018-Jul-16 11:30N 41°11' W 008°42'0 0.2
2018-Jul-16 11:00N 41°11' W 008°42'4 8.5
2018-Jul-16 10:30N 41°13' W 008°47'  
2018-Jul-14 02:01N 41°13' W 008°47'110.2
2018-Jul-14 01:58N 41°13' W 008°47'4 8.6
2018-Jul-14 01:30N 41°11' W 008°42'0 0.7
2018-Jul-14 01:01N 41°11' W 008°42'0 0.0
2018-Jul-14 00:30N 41°11' W 008°42'0 0.0
2018-Jul-14 00:01N 41°11' W 008°42'0 0.0
2018-Jul-13 23:31N 41°11' W 008°42'0 0.0
2018-Jul-13 23:01N 41°11' W 008°42'0 0.0
2018-Jul-13 22:30N 41°11' W 008°42'0 0.0
2018-Jul-13 22:00N 41°11' W 008°42'0 0.0
2018-Jul-13 21:31N 41°11' W 008°42'0 0.0
2018-Jul-13 21:01N 41°11' W 008°42'0 0.0
2018-Jul-13 20:31N 41°11' W 008°42'0 0.0
2018-Jul-13 20:01N 41°11' W 008°42'0 0.0
2018-Jul-13 19:31N 41°11' W 008°42'0 0.0
2018-Jul-13 19:01N 41°11' W 008°42'0 0.0
2018-Jul-13 18:31N 41°11' W 008°42'0 0.0
2018-Jul-13 18:01N 41°11' W 008°42'0 0.0
2018-Jul-13 17:30N 41°11' W 008°42'0 0.0
2018-Jul-13 17:00N 41°11' W 008°42'0 0.0
2018-Jul-13 16:30N 41°11' W 008°42'0 0.0
2018-Jul-13 16:00N 41°11' W 008°42'0 0.0
2018-Jul-13 15:30N 41°11' W 008°42'0 0.7
2018-Jul-13 15:00N 41°11' W 008°42'3 0.2
2018-Jul-13 01:20N 41°09' W 008°46'3 9.3
2018-Jul-13 01:00N 41°10' W 008°42'1 1.3
2018-Jul-13 00:30N 41°11' W 008°42'0 0.0
2018-Jul-13 00:00N 41°11' W 008°42'0 0.0
2018-Jul-12 23:29N 41°11' W 008°42'0 0.0
2018-Jul-12 23:00N 41°11' W 008°42'0 0.0
2018-Jul-12 22:30N 41°11' W 008°42'0 0.0
2018-Jul-12 22:00N 41°11' W 008°42'0 0.0
2018-Jul-12 21:30N 41°11' W 008°42'0 0.0
2018-Jul-12 21:01N 41°11' W 008°42'0 0.0
2018-Jul-12 20:30N 41°11' W 008°42'0 0.0
2018-Jul-12 20:00N 41°11' W 008°42'0 0.0
2018-Jul-12 19:31N 41°11' W 008°42'0 0.0
2018-Jul-12 19:01N 41°11' W 008°42'0 0.0
2018-Jul-12 18:30N 41°11' W 008°42'0 0.0
2018-Jul-12 18:01N 41°11' W 008°42'0 0.0
2018-Jul-12 17:30N 41°11' W 008°42'0 0.0
2018-Jul-12 17:00N 41°11' W 008°42'0 0.0
2018-Jul-12 16:31N 41°11' W 008°42'0 0.0
2018-Jul-12 16:01N 41°11' W 008°42'1 2.2
2018-Jul-12 15:30N 41°10' W 008°43'3 0.3
2018-Jul-12 01:59N 41°08' W 008°47'5 9.7
2018-Jul-12 01:31N 41°11' W 008°42'0 0.0
2018-Jul-12 01:00N 41°11' W 008°42'0 0.0
2018-Jul-12 00:30N 41°11' W 008°42'0 0.0
2018-Jul-12 00:00N 41°11' W 008°42'0 0.0
2018-Jul-11 23:30N 41°11' W 008°42'0 0.0
2018-Jul-11 23:00N 41°11' W 008°42'0 0.0
2018-Jul-11 22:30N 41°11' W 008°42'0 0.0
2018-Jul-11 22:00N 41°11' W 008°42'0 0.0
2018-Jul-11 21:30N 41°11' W 008°42'0 0.0
2018-Jul-11 21:01N 41°11' W 008°42'0 0.0
2018-Jul-11 20:31N 41°11' W 008°42'0 0.0
2018-Jul-11 20:00N 41°11' W 008°42'0 0.0
2018-Jul-11 19:30N 41°11' W 008°42'0 0.0
2018-Jul-11 19:00N 41°11' W 008°42'0 0.0
2018-Jul-11 18:30N 41°11' W 008°42'0 0.0
2018-Jul-11 18:01N 41°11' W 008°42'0 0.0
2018-Jul-11 17:31N 41°11' W 008°42'0 0.0
2018-Jul-11 17:00N 41°11' W 008°42'0 0.0
2018-Jul-11 16:30N 41°11' W 008°42'0 0.0
2018-Jul-11 15:59N 41°11' W 008°42'0 0.0
2018-Jul-11 15:30N 41°11' W 008°42'0 0.0
2018-Jul-11 15:01N 41°11' W 008°42'0 0.0
2018-Jul-11 14:31N 41°11' W 008°42'2 3.8
2018-Jul-11 14:01N 41°11' W 008°45'4 0.4
2018-Jul-11 02:33N 41°13' W 008°49'1 9.0
2018-Jul-11 02:26N 41°13' W 008°48'4 9.4
2018-Jul-11 02:01N 41°11' W 008°44'1 2.4
2018-Jul-11 01:31N 41°11' W 008°42'0 0.0
2018-Jul-11 01:00N 41°11' W 008°42'0 0.0
2018-Jul-11 00:30N 41°11' W 008°42'0 0.0
2018-Jul-11 00:00N 41°11' W 008°42'0 0.0
2018-Jul-10 23:30N 41°11' W 008°42'0 0.0
2018-Jul-10 23:00N 41°11' W 008°42'0 0.0
2018-Jul-10 22:30N 41°11' W 008°42'0 0.0
2018-Jul-10 22:00N 41°11' W 008°42'0 0.0
2018-Jul-10 21:30N 41°11' W 008°42'0 0.0
2018-Jul-10 21:01N 41°11' W 008°42'0 0.0
2018-Jul-10 20:30N 41°11' W 008°42'0 0.0
2018-Jul-10 20:00N 41°11' W 008°42'0 0.1
2018-Jul-10 19:30N 41°11' W 008°42'0 0.0
2018-Jul-10 19:00N 41°11' W 008°42'0 0.0
2018-Jul-10 18:30N 41°11' W 008°42'0 0.1
2018-Jul-10 18:00N 41°11' W 008°42'0 0.0
2018-Jul-10 17:30N 41°11' W 008°42'0 0.2
2018-Jul-10 17:00N 41°11' W 008°42'5 9.3
2018-Jul-10 16:30N 41°10' W 008°48'  
Track history (hours):
 
Tides and Currents Weather Stations Pressure Air Temp Water Temp Dewpoint Dewpoint Depression Visibility Wind Speed Wind Dir Waves Ship Positions

Foz Da Nazare

Last reported at 2018-Jul-20 13:44 UTC. Time now 2018-Jul-23 00:23 UTC.
Position N 41°11' W 008°42'.

Length 34 m.

MMSI: 263470000.

Date/timePositionNaut miles runAvg speedWind from/ knotsBaromVisibWave heightAir tempDewpointWater temp
2018-Jul-20 13:44N 41°11' W 008°42'0 0.0
2018-Jul-20 13:30N 41°11' W 008°42'2 3.7
2018-Jul-20 13:00N 41°11' W 008°44'2 0.1
2018-Jul-19 21:30N 41°12' W 008°47'4 7.9
2018-Jul-19 21:00N 41°11' W 008°42'0 0.0
2018-Jul-19 20:30N 41°11' W 008°42'0 0.0
2018-Jul-19 20:01N 41°11' W 008°42'0 0.0
2018-Jul-19 19:29N 41°11' W 008°42'0 0.0
2018-Jul-19 19:00N 41°11' W 008°42'0 0.0
2018-Jul-19 18:30N 41°11' W 008°42'0 0.0
2018-Jul-19 18:00N 41°11' W 008°42'0 0.0
2018-Jul-19 17:31N 41°11' W 008°42'0 0.0
2018-Jul-19 17:00N 41°11' W 008°42'0 0.0
2018-Jul-19 16:30N 41°11' W 008°42'4 7.2
2018-Jul-19 16:00N 41°11' W 008°47'1 0.1
2018-Jul-19 02:42N 41°11' W 008°48'210.5
2018-Jul-19 02:31N 41°10' W 008°45'3 5.1
2018-Jul-19 02:00N 41°11' W 008°42'0 0.0
2018-Jul-19 01:30N 41°11' W 008°42'0 0.0
2018-Jul-19 01:01N 41°11' W 008°42'0 0.0
2018-Jul-19 00:30N 41°11' W 008°42'0 0.0
2018-Jul-19 00:01N 41°11' W 008°42'0 0.0
2018-Jul-18 23:31N 41°11' W 008°42'0 0.0
2018-Jul-18 23:01N 41°11' W 008°42'0 0.0
2018-Jul-18 22:31N 41°11' W 008°42'0 0.0
2018-Jul-18 22:00N 41°11' W 008°42'0 0.0
2018-Jul-18 21:30N 41°11' W 008°42'0 0.0
2018-Jul-18 21:00N 41°11' W 008°42'0 0.0
2018-Jul-18 20:31N 41°11' W 008°42'0 0.0
2018-Jul-18 20:00N 41°11' W 008°42'0 0.0
2018-Jul-18 19:31N 41°11' W 008°42'0 0.0
2018-Jul-18 19:00N 41°11' W 008°42'0 0.0
2018-Jul-18 18:31N 41°11' W 008°42'0 0.0
2018-Jul-18 18:01N 41°11' W 008°42'0 0.0
2018-Jul-18 17:31N 41°11' W 008°42'0 0.0
2018-Jul-18 17:00N 41°11' W 008°42'3 6.3
2018-Jul-18 16:30N 41°09' W 008°46'5 0.3
2018-Jul-18 01:33N 41°14' W 008°47'1 9.8
2018-Jul-18 01:29N 41°13' W 008°47'4 9.2
2018-Jul-18 01:00N 41°10' W 008°43'1 1.5
2018-Jul-18 00:31N 41°11' W 008°42'0 0.0
2018-Jul-18 00:00N 41°11' W 008°42'0 0.0
2018-Jul-17 23:30N 41°11' W 008°42'0 0.0
2018-Jul-17 23:00N 41°11' W 008°42'0 0.0
2018-Jul-17 22:30N 41°11' W 008°42'0 0.0
2018-Jul-17 22:00N 41°11' W 008°42'0 0.0
2018-Jul-17 21:30N 41°11' W 008°42'0 0.0
2018-Jul-17 21:00N 41°11' W 008°42'0 0.0
2018-Jul-17 20:30N 41°11' W 008°42'0 0.0
2018-Jul-17 20:00N 41°11' W 008°42'0 0.0
2018-Jul-17 19:31N 41°11' W 008°42'0 0.0
2018-Jul-17 19:00N 41°11' W 008°42'0 0.0
2018-Jul-17 18:30N 41°11' W 008°42'0 0.0
2018-Jul-17 18:00N 41°11' W 008°42'0 0.0
2018-Jul-17 17:30N 41°11' W 008°42'0 0.0
2018-Jul-17 17:00N 41°11' W 008°42'3 6.0
2018-Jul-17 16:30N 41°10' W 008°46'3 0.2
2018-Jul-17 02:29N 41°10' W 008°49'510.3
2018-Jul-17 02:01N 41°10' W 008°43'1 2.2
2018-Jul-17 01:30N 41°11' W 008°42'0 0.0
2018-Jul-17 01:00N 41°11' W 008°42'0 0.0
2018-Jul-17 00:30N 41°11' W 008°42'0 0.0
2018-Jul-16 23:30N 41°11' W 008°42'0 0.0
2018-Jul-16 23:01N 41°11' W 008°42'0 0.0
2018-Jul-16 22:30N 41°11' W 008°42'0 0.0
2018-Jul-16 22:00N 41°11' W 008°42'0 0.0
2018-Jul-16 21:30N 41°11' W 008°42'0 0.0
2018-Jul-16 21:00N 41°11' W 008°42'0 0.0
2018-Jul-16 20:30N 41°11' W 008°42'0 0.0
2018-Jul-16 20:00N 41°11' W 008°42'0 0.0
2018-Jul-16 19:30N 41°11' W 008°42'0 0.0
2018-Jul-16 19:00N 41°11' W 008°42'0 0.0
2018-Jul-16 18:30N 41°11' W 008°42'0 0.0
2018-Jul-16 18:00N 41°11' W 008°42'0 0.0
2018-Jul-16 17:30N 41°11' W 008°42'0 0.0
2018-Jul-16 17:00N 41°11' W 008°42'0 0.0
2018-Jul-16 16:30N 41°11' W 008°42'0 0.0
2018-Jul-16 16:01N 41°11' W 008°42'0 0.0
2018-Jul-16 15:31N 41°11' W 008°42'0 0.0
2018-Jul-16 15:01N 41°11' W 008°42'0 0.0
2018-Jul-16 14:30N 41°11' W 008°42'0 0.0
2018-Jul-16 14:00N 41°11' W 008°42'0 0.0
2018-Jul-16 13:31N 41°11' W 008°42'0 0.0
2018-Jul-16 13:00N 41°11' W 008°42'0 0.0
2018-Jul-16 12:30N 41°11' W 008°42'0 0.0
2018-Jul-16 12:00N 41°11' W 008°42'0 0.0
2018-Jul-16 11:30N 41°11' W 008°42'0 0.2
2018-Jul-16 11:00N 41°11' W 008°42'4 8.5
2018-Jul-16 10:30N 41°13' W 008°47'  
2018-Jul-14 02:01N 41°13' W 008°47'110.2
2018-Jul-14 01:58N 41°13' W 008°47'4 8.6
2018-Jul-14 01:30N 41°11' W 008°42'0 0.7
2018-Jul-14 01:01N 41°11' W 008°42'0 0.0
2018-Jul-14 00:30N 41°11' W 008°42'0 0.0
2018-Jul-14 00:01N 41°11' W 008°42'0 0.0
2018-Jul-13 23:31N 41°11' W 008°42'0 0.0
2018-Jul-13 23:01N 41°11' W 008°42'0 0.0
2018-Jul-13 22:30N 41°11' W 008°42'0 0.0
2018-Jul-13 22:00N 41°11' W 008°42'0 0.0
2018-Jul-13 21:31N 41°11' W 008°42'0 0.0
2018-Jul-13 21:01N 41°11' W 008°42'0 0.0
2018-Jul-13 20:31N 41°11' W 008°42'0 0.0
2018-Jul-13 20:01N 41°11' W 008°42'0 0.0
2018-Jul-13 19:31N 41°11' W 008°42'0 0.0
2018-Jul-13 19:01N 41°11' W 008°42'0 0.0
2018-Jul-13 18:31N 41°11' W 008°42'0 0.0
2018-Jul-13 18:01N 41°11' W 008°42'0 0.0
2018-Jul-13 17:30N 41°11' W 008°42'0 0.0
2018-Jul-13 17:00N 41°11' W 008°42'0 0.0
2018-Jul-13 16:30N 41°11' W 008°42'0 0.0
2018-Jul-13 16:00N 41°11' W 008°42'0 0.0
2018-Jul-13 15:30N 41°11' W 008°42'0 0.7
2018-Jul-13 15:00N 41°11' W 008°42'3 0.2
2018-Jul-13 01:20N 41°09' W 008°46'3 9.3
2018-Jul-13 01:00N 41°10' W 008°42'1 1.3
2018-Jul-13 00:30N 41°11' W 008°42'0 0.0
2018-Jul-13 00:00N 41°11' W 008°42'0 0.0
2018-Jul-12 23:29N 41°11' W 008°42'0 0.0
2018-Jul-12 23:00N 41°11' W 008°42'0 0.0
2018-Jul-12 22:30N 41°11' W 008°42'0 0.0
2018-Jul-12 22:00N 41°11' W 008°42'0 0.0
2018-Jul-12 21:30N 41°11' W 008°42'0 0.0
2018-Jul-12 21:01N 41°11' W 008°42'0 0.0
2018-Jul-12 20:30N 41°11' W 008°42'0 0.0
2018-Jul-12 20:00N 41°11' W 008°42'0 0.0
2018-Jul-12 19:31N 41°11' W 008°42'0 0.0
2018-Jul-12 19:01N 41°11' W 008°42'0 0.0
2018-Jul-12 18:30N 41°11' W 008°42'0 0.0
2018-Jul-12 18:01N 41°11' W 008°42'0 0.0
2018-Jul-12 17:30N 41°11' W 008°42'0 0.0
2018-Jul-12 17:00N 41°11' W 008°42'0 0.0
2018-Jul-12 16:31N 41°11' W 008°42'0 0.0
2018-Jul-12 16:01N 41°11' W 008°42'1 2.2
2018-Jul-12 15:30N 41°10' W 008°43'3 0.3
2018-Jul-12 01:59N 41°08' W 008°47'5 9.7
2018-Jul-12 01:31N 41°11' W 008°42'0 0.0
2018-Jul-12 01:00N 41°11' W 008°42'0 0.0
2018-Jul-12 00:30N 41°11' W 008°42'0 0.0
2018-Jul-12 00:00N 41°11' W 008°42'0 0.0
2018-Jul-11 23:30N 41°11' W 008°42'0 0.0
2018-Jul-11 23:00N 41°11' W 008°42'0 0.0
2018-Jul-11 22:30N 41°11' W 008°42'0 0.0
2018-Jul-11 22:00N 41°11' W 008°42'0 0.0
2018-Jul-11 21:30N 41°11' W 008°42'0 0.0
2018-Jul-11 21:01N 41°11' W 008°42'0 0.0
2018-Jul-11 20:31N 41°11' W 008°42'0 0.0
2018-Jul-11 20:00N 41°11' W 008°42'0 0.0
2018-Jul-11 19:30N 41°11' W 008°42'0 0.0
2018-Jul-11 19:00N 41°11' W 008°42'0 0.0
2018-Jul-11 18:30N 41°11' W 008°42'0 0.0
2018-Jul-11 18:01N 41°11' W 008°42'0 0.0
2018-Jul-11 17:31N 41°11' W 008°42'0 0.0
2018-Jul-11 17:00N 41°11' W 008°42'0 0.0
2018-Jul-11 16:30N 41°11' W 008°42'0 0.0
2018-Jul-11 15:59N 41°11' W 008°42'0 0.0
2018-Jul-11 15:30N 41°11' W 008°42'0 0.0
2018-Jul-11 15:01N 41°11' W 008°42'0 0.0
2018-Jul-11 14:31N 41°11' W 008°42'2 3.8
2018-Jul-11 14:01N 41°11' W 008°45'4 0.4
2018-Jul-11 02:33N 41°13' W 008°49'1 9.0
2018-Jul-11 02:26N 41°13' W 008°48'4 9.4
2018-Jul-11 02:01N 41°11' W 008°44'1 2.4
2018-Jul-11 01:31N 41°11' W 008°42'0 0.0
2018-Jul-11 01:00N 41°11' W 008°42'0 0.0
2018-Jul-11 00:30N 41°11' W 008°42'0 0.0
2018-Jul-11 00:00N 41°11' W 008°42'0 0.0
2018-Jul-10 23:30N 41°11' W 008°42'0 0.0
2018-Jul-10 23:00N 41°11' W 008°42'0 0.0
2018-Jul-10 22:30N 41°11' W 008°42'0 0.0
2018-Jul-10 22:00N 41°11' W 008°42'0 0.0
2018-Jul-10 21:30N 41°11' W 008°42'0 0.0
2018-Jul-10 21:01N 41°11' W 008°42'0 0.0
2018-Jul-10 20:30N 41°11' W 008°42'0 0.0
2018-Jul-10 20:00N 41°11' W 008°42'0 0.1
2018-Jul-10 19:30N 41°11' W 008°42'0 0.0
2018-Jul-10 19:00N 41°11' W 008°42'0 0.0
2018-Jul-10 18:30N 41°11' W 008°42'0 0.1
2018-Jul-10 18:00N 41°11' W 008°42'0 0.0
2018-Jul-10 17:30N 41°11' W 008°42'0 0.2
2018-Jul-10 17:00N 41°11' W 008°42'5 9.3
2018-Jul-10 16:30N 41°10' W 008°48'  

Dump ship's entire track history